Time,TemperatureF,DewpointF,PressureIn,WindDirection,WindDirectionDegrees,WindSpeedMPH,WindSpeedGustMPH,Humidity,HourlyPrecipIn,Conditions,Clouds,dailyrainin,SoftwareType,DateUTC
2013-02-12 00:00:00,49.0,45.7,30.05,SSW,202,2.0,3.0,88,0.00,,SKC,0.10,VWS V14.01,2013-02-12 02:00:00,
2013-02-12 00:05:00,49.1,46.0,30.05,SSW,205,2.0,3.0,88,0.00,,,0.28,weatherlink.com 1.10,2013-02-12 02:05:00,
2013-02-12 00:15:00,49.0,45.8,30.05,SSW,202,1.0,3.0,89,0.00,,SKC,0.10,VWS V14.01,2013-02-12 02:15:00,
2013-02-12 00:20:00,48.8,46.0,30.05,SSW,205,2.0,2.0,89,0.00,,,0.28,weatherlink.com 1.10,2013-02-12 02:20:00,
2013-02-12 00:30:00,48.0,45.9,30.04,SSW,202,2.0,4.0,91,0.00,,SKC,0.10,VWS V14.01,2013-02-12 02:30:00,
2013-02-12 00:36:00,47.9,46.0,30.04,South,181,1.0,4.0,91,0.00,,,0.28,weatherlink.com 1.10,2013-02-12 02:36:00,
2013-02-12 00:45:00,48.0,45.3,30.03,South,180,2.0,4.0,91,0.00,,SKC,0.10,VWS V14.01,2013-02-12 02:45:00,
2013-02-12 00:50:00,47.6,45.0,30.02,SSW,205,3.0,4.0,91,0.00,,,0.28,weatherlink.com 1.10,2013-02-12 02:50:00,
2013-02-12 01:00:00,48.0,44.5,30.04,SSW,202,2.0,6.0,89,0.00,,SKC,0.10,VWS V14.01,2013-02-12 03:00:00,
2013-02-12 01:05:00,48.0,45.0,30.03,SSW,205,2.0,6.0,88,0.00,,,0.28,weatherlink.com 1.10,2013-02-12 03:05:00,
2013-02-12 01:15:00,48.0,45.0,30.04,SSW,202,2.0,5.0,90,0.00,,SKC,0.10,VWS V14.01,2013-02-12 03:15:00,
2013-02-12 01:20:00,47.6,45.0,30.03,SW,223,2.0,3.0,89,0.00,,,0.28,weatherlink.com 1.10,2013-02-12 03:20:00,
2013-02-12 01:30:00,48.0,43.9,30.03,SSW,202,2.0,6.0,86,0.00,,SKC,0.10,VWS V14.01,2013-02-12 03:30:00,
2013-02-12 01:35:00,48.0,44.0,30.02,SW,217,3.0,4.0,87,0.00,,,0.28,weatherlink.com 1.10,2013-02-12 03:35:00,
2013-02-12 01:45:00,48.0,43.2,30.03,SW,225,2.0,5.0,83,0.00,,SKC,0.10,VWS V14.01,2013-02-12 03:45:00,
2013-02-12 01:50:00,48.2,43.0,30.03,SSW,198,3.0,5.0,83,0.00,,,0.28,weatherlink.com 1.10,2013-02-12 03:50:00,
2013-02-12 02:00:00,48.0,44.2,30.04,South,180,2.0,4.0,87,0.00,,SKC,0.10,VWS V14.01,2013-02-12 04:00:00,
2013-02-12 02:05:00,47.4,44.0,30.04,South,179,3.0,4.0,88,0.00,,,0.28,weatherlink.com 1.10,2013-02-12 04:05:00,
2013-02-12 02:15:00,47.0,43.9,30.04,South,180,2.0,5.0,88,0.00,,SKC,0.10,VWS V14.01,2013-02-12 04:15:00,
2013-02-12 02:20:00,47.3,44.0,30.04,South,184,1.0,3.0,88,0.00,,,0.28,weatherlink.com 1.10,2013-02-12 04:20:00,
2013-02-12 02:30:00,47.0,43.9,30.06,South,180,2.0,5.0,88,0.00,,SKC,0.10,VWS V14.01,2013-02-12 04:30:00,
2013-02-12 02:35:00,47.2,44.0,30.05,South,190,3.0,6.0,89,0.00,,,0.28,weatherlink.com 1.10,2013-02-12 04:35:00,
2013-02-12 02:45:00,47.0,44.1,30.06,SSW,202,2.0,6.0,89,0.00,,SKC,0.10,VWS V14.01,2013-02-12 04:45:00,
2013-02-12 02:51:00,46.7,44.0,30.07,South,186,2.0,4.0,90,0.00,,,0.28,weatherlink.com 1.10,2013-02-12 04:51:00,
2013-02-12 03:00:00,47.0,43.6,30.06,South,180,1.0,4.0,89,0.00,,SKC,0.00,VWS V14.01,2013-02-12 05:00:00,
2013-02-12 03:05:00,46.9,44.0,30.06,South,186,1.0,2.0,89,0.00,,,0.00,weatherlink.com 1.10,2013-02-12 05:05:00,
2013-02-12 03:15:00,46.0,43.5,30.05,South,180,1.0,3.0,89,0.00,,SKC,0.00,VWS V14.01,2013-02-12 05:15:00,
2013-02-12 03:20:00,46.3,43.0,30.05,SW,217,3.0,5.0,89,0.00,,,0.00,weatherlink.com 1.10,2013-02-12 05:20:00,
2013-02-12 03:30:00,46.0,43.0,30.05,SSW,202,2.0,5.0,88,0.00,,SKC,0.00,VWS V14.01,2013-02-12 05:30:00,
2013-02-12 03:35:00,46.2,43.0,30.05,SSW,192,2.0,4.0,88,0.00,,,0.00,weatherlink.com 1.10,2013-02-12 05:35:00,
2013-02-12 03:45:00,46.0,42.2,30.04,SSW,202,3.0,6.0,86,0.00,,SKC,0.00,VWS V14.01,2013-02-12 05:45:00,
2013-02-12 03:50:00,46.2,43.0,30.03,SW,214,2.0,5.0,87,0.00,,,0.00,weatherlink.com 1.10,2013-02-12 05:50:00,
2013-02-12 04:00:00,46.0,42.8,30.02,SW,225,1.0,3.0,88,0.00,,SKC,0.00,VWS V14.01,2013-02-12 06:00:00,
2013-02-12 04:06:00,45.2,43.0,30.02,SW,217,0.0,2.0,90,0.00,,,0.00,weatherlink.com 1.10,2013-02-12 06:06:00,
2013-02-12 04:15:00,45.0,42.3,30.02,South,180,0.0,3.0,90,0.00,,SKC,0.00,VWS V14.01,2013-02-12 06:15:00,
2013-02-12 04:21:00,44.8,42.0,30.02,WSW,254,0.0,4.0,90,0.00,,,0.00,weatherlink.com 1.10,2013-02-12 06:21:00,
2013-02-12 04:30:00,46.0,40.2,30.03,SW,225,1.0,4.0,82,0.00,,SKC,0.00,VWS V14.01,2013-02-12 06:30:00,
2013-02-12 04:36:00,46.2,40.0,30.04,WSW,237,1.0,6.0,79,0.00,,,0.00,weatherlink.com 1.10,2013-02-12 06:36:00,
2013-02-12 04:45:00,48.0,37.9,30.04,WSW,248,3.0,8.0,71,0.00,,SKC,0.00,VWS V14.01,2013-02-12 06:45:00,
2013-02-12 04:51:00,47.9,39.0,30.04,WNW,295,3.0,8.0,71,0.00,,,0.00,weatherlink.com 1.10,2013-02-12 06:51:00,
2013-02-12 05:00:00,48.0,38.2,30.03,WSW,248,2.0,6.0,69,0.00,,SKC,0.00,VWS V14.01,2013-02-12 07:00:00,
2013-02-12 05:06:00,48.0,38.0,30.04,SW,217,5.0,6.0,69,0.00,,,0.00,weatherlink.com 1.10,2013-02-12 07:06:00,
2013-02-12 05:15:00,48.0,36.5,30.04,West,270,3.0,7.0,64,0.00,,SKC,0.00,VWS V14.01,2013-02-12 07:15:00,
2013-02-12 05:21:00,48.0,37.0,30.04,WSW,255,0.0,6.0,65,0.00,,,0.00,weatherlink.com 1.10,2013-02-12 07:21:00,
2013-02-12 05:30:00,48.0,36.6,30.03,WSW,248,1.0,6.0,65,0.00,,SKC,0.00,VWS V14.01,2013-02-12 07:30:00,
2013-02-12 05:36:00,47.8,36.0,30.02,SW,216,3.0,5.0,63,0.00,,,0.00,weatherlink.com 1.10,2013-02-12 07:36:00,
2013-02-12 05:45:00,48.0,36.7,30.01,WSW,248,2.0,6.0,65,0.00,,SKC,0.00,VWS V14.01,2013-02-12 07:45:00,
2013-02-12 05:51:00,47.9,35.0,30.01,WNW,292,4.0,6.0,62,0.00,,,0.00,weatherlink.com 1.10,2013-02-12 07:51:00,
2013-02-12 06:00:00,48.0,35.9,30.01,West,270,3.0,8.0,63,0.00,,SKC,0.00,VWS V14.01,2013-02-12 08:00:00,
2013-02-12 06:06:00,47.9,36.0,30.02,West,281,5.0,7.0,63,0.00,,,0.00,weatherlink.com 1.10,2013-02-12 08:06:00,
2013-02-12 06:15:00,48.0,36.2,30.02,WSW,248,4.0,9.0,64,0.00,,SKC,0.00,VWS V14.01,2013-02-12 08:15:00,
2013-02-12 06:21:00,47.6,36.0,30.02,WNW,284,5.0,9.0,65,0.00,,,0.00,weatherlink.com 1.10,2013-02-12 08:21:00,
2013-02-12 06:30:00,47.0,36.3,30.01,West,270,4.0,10.0,65,0.00,,SKC,0.00,VWS V14.01,2013-02-12 08:30:00,
2013-02-12 06:36:00,47.2,36.0,30.02,West,281,2.0,8.0,66,0.00,,,0.00,weatherlink.com 1.10,2013-02-12 08:36:00,
2013-02-12 06:45:00,47.0,36.6,30.02,SW,225,3.0,7.0,67,0.00,,SKC,0.00,VWS V14.01,2013-02-12 08:45:00,
2013-02-12 06:51:00,46.9,36.0,30.03,WSW,242,4.0,11.0,67,0.00,,,0.00,weatherlink.com 1.10,2013-02-12 08:51:00,
2013-02-12 07:00:00,47.0,35.1,30.02,WSW,248,4.0,11.0,63,0.00,,SKC,0.00,VWS V14.01,2013-02-12 09:00:00,
2013-02-12 07:06:00,47.0,35.0,30.02,WNW,292,2.0,8.0,64,0.00,,,0.00,weatherlink.com 1.10,2013-02-12 09:06:00,
2013-02-12 07:15:00,47.0,35.3,30.01,WNW,292,3.0,7.0,64,0.00,,SKC,0.00,VWS V14.01,2013-02-12 09:15:00,
2013-02-12 07:21:00,46.8,34.0,30.02,WNW,284,4.0,7.0,61,0.00,,,0.00,weatherlink.com 1.10,2013-02-12 09:21:00,
2013-02-12 07:30:00,47.0,33.7,30.02,WNW,292,4.0,8.0,60,0.00,,SKC,0.00,VWS V14.01,2013-02-12 09:30:00,
2013-02-12 07:36:00,46.7,33.0,30.02,SSW,196,2.0,9.0,59,0.00,,,0.00,weatherlink.com 1.10,2013-02-12 09:36:00,
2013-02-12 07:45:00,47.0,33.6,30.03,West,270,3.0,9.0,60,0.00,,SKC,0.00,VWS V14.01,2013-02-12 09:45:00,
2013-02-12 07:51:00,46.4,34.0,30.03,SW,227,6.0,6.0,62,0.00,,,0.00,weatherlink.com 1.10,2013-02-12 09:51:00,
2013-02-12 08:00:00,46.0,33.9,30.02,WSW,248,2.0,6.0,62,0.00,,SKC,0.00,VWS V14.01,2013-02-12 10:00:00,
2013-02-12 08:06:00,45.6,34.0,30.02,WNW,290,0.0,5.0,64,0.00,,,0.00,weatherlink.com 1.10,2013-02-12 10:06:00,
2013-02-12 08:15:00,46.0,33.8,30.02,WNW,292,2.0,6.0,63,0.00,,SKC,0.00,VWS V14.01,2013-02-12 10:15:00,
2013-02-12 08:21:00,45.5,33.0,30.02,WNW,297,3.0,6.0,63,0.00,,,0.00,weatherlink.com 1.10,2013-02-12 10:21:00,
2013-02-12 08:30:00,45.0,34.2,30.01,WSW,248,2.0,6.0,65,0.00,,SKC,0.00,VWS V14.01,2013-02-12 10:30:00,
2013-02-12 08:36:00,44.6,35.0,30.02,WNW,286,2.0,6.0,68,0.00,,,0.00,weatherlink.com 1.10,2013-02-12 10:36:00,
2013-02-12 08:45:00,45.0,35.1,30.02,WSW,248,2.0,7.0,69,0.00,,SKC,0.00,VWS V14.01,2013-02-12 10:45:00,
2013-02-12 08:51:00,44.6,34.0,30.02,West,270,1.0,7.0,67,0.00,,,0.00,weatherlink.com 1.10,2013-02-12 10:51:00,
2013-02-12 09:00:00,45.0,34.6,30.02,West,270,2.0,6.0,68,0.00,,SKC,0.00,VWS V14.01,2013-02-12 11:00:00,
2013-02-12 09:06:00,44.3,35.0,30.04,SSW,202,3.0,5.0,70,0.00,,,0.00,weatherlink.com 1.10,2013-02-12 11:06:00,
2013-02-12 09:15:00,44.0,33.7,30.04,WSW,248,3.0,7.0,66,0.00,,SKC,0.00,VWS V14.01,2013-02-12 11:15:00,
2013-02-12 09:21:00,44.6,33.0,30.03,WSW,251,5.0,7.0,65,0.00,,,0.00,weatherlink.com 1.10,2013-02-12 11:21:00,
2013-02-12 09:36:00,44.9,33.0,30.04,WSW,252,5.0,6.0,64,0.00,,,0.00,weatherlink.com 1.10,2013-02-12 11:36:00,
2013-02-12 09:45:00,45.0,33.4,30.05,West,271,2.0,4.0,64,0.18,,SKC,0.00,VWS V14.01,2013-02-12 11:45:00,
2013-02-12 09:46:00,45.0,33.0,30.05,SW,217,4.0,4.0,63,0.00,,SKC,0.00,VWS V14.01,2013-02-12 11:46:00,
2013-02-12 09:51:00,45.0,32.7,30.04,WSW,249,5.0,6.0,62,0.18,,SKC,0.00,VWS V14.01,2013-02-12 11:51:00,
2013-02-12 09:56:00,45.0,32.8,30.04,WSW,238,4.0,7.0,62,0.18,,SKC,0.00,VWS V14.01,2013-02-12 11:56:00,
2013-02-12 10:00:00,45.0,32.8,30.05,WSW,248,3.0,7.0,62,0.08,,SKC,0.00,VWS V14.01,2013-02-12 12:00:00,
2013-02-12 10:08:00,44.9,32.0,30.04,WSW,252,1.0,7.0,62,0.00,,,0.00,weatherlink.com 1.10,2013-02-12 12:08:00,
2013-02-12 10:15:00,45.0,32.7,30.05,WSW,248,2.0,7.0,62,0.08,,SKC,0.00,VWS V14.01,2013-02-12 12:15:00,
2013-02-12 10:23:00,44.5,33.0,30.05,SW,221,4.0,6.0,64,0.00,,,0.00,weatherlink.com 1.10,2013-02-12 12:23:00,
2013-02-12 10:30:00,44.0,35.3,30.05,SSW,202,2.0,6.0,70,0.08,,SKC,0.00,VWS V14.01,2013-02-12 12:30:00,
2013-02-12 10:39:00,43.6,36.0,30.06,WNW,290,2.0,4.0,74,0.00,,,0.00,weatherlink.com 1.10,2013-02-12 12:39:00,
2013-02-12 10:45:00,44.0,33.8,30.05,WNW,292,2.0,4.0,68,0.00,,SKC,0.00,VWS V14.01,2013-02-12 12:45:00,
2013-02-12 10:53:00,44.1,33.0,30.06,WSW,249,3.0,6.0,65,0.00,,,0.00,weatherlink.com 1.10,2013-02-12 12:53:00,
2013-02-12 11:00:00,45.0,31.7,30.07,WNW,292,2.0,6.0,61,0.00,,SKC,0.00,VWS V14.01,2013-02-12 13:00:00,
2013-02-12 11:08:00,44.8,32.0,30.07,West,262,4.0,4.0,62,0.00,,,0.00,weatherlink.com 1.10,2013-02-12 13:08:00,
2013-02-12 11:15:00,45.0,32.5,30.07,West,270,2.0,6.0,62,0.00,,SKC,0.00,VWS V14.01,2013-02-12 13:15:00,
2013-02-12 11:24:00,44.7,32.0,30.05,WNW,291,2.0,5.0,62,0.00,,,0.00,weatherlink.com 1.10,2013-02-12 13:24:00,
2013-02-12 11:30:00,44.0,32.4,30.06,NW,315,2.0,5.0,62,0.00,,SKC,0.00,VWS V14.01,2013-02-12 13:30:00,
2013-02-12 11:39:00,44.7,32.0,30.07,West,263,2.0,4.0,62,0.00,,,0.00,weatherlink.com 1.10,2013-02-12 13:39:00,
2013-02-12 11:45:00,45.0,33.3,30.06,WNW,292,2.0,5.0,64,0.00,,SKC,0.00,VWS V14.01,2013-02-12 13:45:00,
2013-02-12 11:54:00,45.1,32.0,30.05,WNW,298,2.0,6.0,61,0.00,,,0.00,weatherlink.com 1.10,2013-02-12 13:54:00,
2013-02-12 12:00:00,45.0,33.0,30.05,WNW,292,2.0,6.0,62,0.00,,SKC,0.00,VWS V14.01,2013-02-12 14:00:00,
2013-02-12 12:09:00,45.8,32.0,30.06,WNW,290,2.0,5.0,60,0.00,,,0.00,weatherlink.com 1.10,2013-02-12 14:09:00,
2013-02-12 12:15:00,47.0,30.7,30.06,WNW,292,3.0,6.0,55,0.00,,SKC,0.00,VWS V14.01,2013-02-12 14:15:00,
2013-02-12 12:24:00,47.5,33.0,30.06,NW,323,3.0,6.0,57,0.00,,,0.00,weatherlink.com 1.10,2013-02-12 14:24:00,
2013-02-12 12:30:00,48.0,32.1,30.06,West,270,3.0,6.0,55,0.00,,SKC,0.00,VWS V14.01,2013-02-12 14:30:00,
2013-02-12 12:39:00,47.7,32.0,30.06,NW,305,3.0,4.0,55,0.00,,,0.00,weatherlink.com 1.10,2013-02-12 14:39:00,
2013-02-12 12:45:00,48.0,32.4,30.05,WNW,292,2.0,4.0,55,0.00,,SKC,0.00,VWS V14.01,2013-02-12 14:45:00,
2013-02-12 12:54:00,47.9,31.0,30.05,NNW,336,4.0,4.0,53,0.00,,,0.00,weatherlink.com 1.10,2013-02-12 14:54:00,
2013-02-12 13:00:00,48.0,32.5,30.05,NNW,338,2.0,4.0,55,0.00,,SKC,0.00,VWS V14.01,2013-02-12 15:00:00,
2013-02-12 13:09:00,49.1,33.0,30.04,WNW,287,1.0,4.0,54,0.00,,,0.00,weatherlink.com 1.10,2013-02-12 15:09:00,
2013-02-12 13:15:00,50.0,31.9,30.05,NNW,338,2.0,4.0,51,0.00,,SKC,0.00,VWS V14.01,2013-02-12 15:15:00,
2013-02-12 13:24:00,50.6,34.0,30.04,NNE,13,1.0,5.0,54,0.00,,,0.00,weatherlink.com 1.10,2013-02-12 15:24:00,
2013-02-12 13:30:00,51.0,32.7,30.04,NNW,338,2.0,5.0,50,0.00,,SKC,0.00,VWS V14.01,2013-02-12 15:30:00,
2013-02-12 13:39:00,51.8,34.0,30.04,WNW,287,3.0,5.0,50,0.00,,,0.00,weatherlink.com 1.10,2013-02-12 15:39:00,
2013-02-12 13:45:00,52.0,31.7,30.05,WNW,292,2.0,5.0,46,0.00,,SKC,0.00,VWS V14.01,2013-02-12 15:45:00,
2013-02-12 13:54:00,53.3,33.0,30.05,NNW,338,2.0,4.0,46,0.00,,,0.00,weatherlink.com 1.10,2013-02-12 15:54:00,
2013-02-12 14:00:00,54.0,33.1,30.05,WNW,292,1.0,4.0,46,0.00,,SKC,0.00,VWS V14.01,2013-02-12 16:00:00,
2013-02-12 14:09:00,55.0,36.0,30.04,East,98,2.0,4.0,50,0.00,,,0.00,weatherlink.com 1.10,2013-02-12 16:09:00,
2013-02-12 14:15:00,55.0,32.1,30.04,East,90,2.0,5.0,42,0.00,,SKC,0.00,VWS V14.01,2013-02-12 16:15:00,
2013-02-12 14:24:00,55.7,36.0,30.04,South,173,1.0,3.0,48,0.00,,,0.00,weatherlink.com 1.10,2013-02-12 16:24:00,
2013-02-12 14:30:00,56.0,32.2,30.04,South,180,1.0,3.0,41,0.00,,SKC,0.00,VWS V14.01,2013-02-12 16:30:00,
2013-02-12 14:39:00,55.4,31.0,30.03,NNW,337,1.0,4.0,39,0.00,,,0.00,weatherlink.com 1.10,2013-02-12 16:39:00,
2013-02-12 14:45:00,56.0,32.1,30.03,NW,315,2.0,4.0,41,0.00,,SKC,0.00,VWS V14.01,2013-02-12 16:45:00,
2013-02-12 14:54:00,55.5,32.0,30.04,NW,324,1.0,4.0,41,0.00,,,0.00,weatherlink.com 1.10,2013-02-12 16:54:00,
2013-02-12 15:00:00,56.0,29.7,30.04,NW,315,1.0,4.0,37,0.00,,SKC,0.00,VWS V14.01,2013-02-12 17:00:00,
2013-02-12 15:09:00,55.7,28.0,30.04,SW,232,1.0,2.0,35,0.00,,,0.00,weatherlink.com 1.10,2013-02-12 17:09:00,
2013-02-12 15:15:00,56.0,32.9,30.04,SW,225,0.0,2.0,42,0.00,,SKC,0.00,VWS V14.01,2013-02-12 17:15:00,
2013-02-12 15:24:00,56.0,32.0,30.03,SW,232,1.0,2.0,41,0.00,,,0.00,weatherlink.com 1.10,2013-02-12 17:24:00,
2013-02-12 15:30:00,56.0,30.7,30.02,SW,225,0.0,2.0,38,0.00,,SKC,0.00,VWS V14.01,2013-02-12 17:30:00,
2013-02-12 15:39:00,56.2,31.0,30.02,North,350,0.0,2.0,38,0.00,,,0.00,weatherlink.com 1.10,2013-02-12 17:39:00,
2013-02-12 15:45:00,56.0,29.6,30.02,NE,45,0.0,2.0,36,0.00,,SKC,0.00,VWS V14.01,2013-02-12 17:45:00,
2013-02-12 15:54:00,56.4,31.0,30.02,WSW,258,0.0,2.0,38,0.00,,,0.00,weatherlink.com 1.10,2013-02-12 17:54:00,
2013-02-12 16:00:00,56.0,32.3,30.01,WSW,248,0.0,2.0,40,0.00,,SKC,0.00,VWS V14.01,2013-02-12 18:00:00,
2013-02-12 16:09:00,56.4,30.0,30.01,WSW,258,0.0,2.0,36,0.00,,,0.00,weatherlink.com 1.10,2013-02-12 18:09:00,
2013-02-12 16:15:00,56.0,30.5,30.01,WSW,248,0.0,2.0,37,0.00,,SKC,0.00,VWS V14.01,2013-02-12 18:15:00,
2013-02-12 16:24:00,56.7,33.0,30.01,WSW,252,0.0,1.0,41,0.00,,,0.00,weatherlink.com 1.10,2013-02-12 18:24:00,
2013-02-12 16:30:00,57.0,30.7,30.01,WSW,248,0.0,2.0,37,0.00,,SKC,0.00,VWS V14.01,2013-02-12 18:30:00,
2013-02-12 16:39:00,56.9,31.0,30.00,NE,41,2.0,3.0,37,0.00,,,0.00,weatherlink.com 1.10,2013-02-12 18:39:00,
2013-02-12 16:45:00,57.0,28.8,29.99,NE,45,1.0,3.0,34,0.00,,SKC,0.00,VWS V14.01,2013-02-12 18:45:00,
2013-02-12 16:54:00,56.8,31.0,29.98,NE,40,2.0,2.0,37,0.00,,,0.00,weatherlink.com 1.10,2013-02-12 18:54:00,
2013-02-12 17:00:00,57.0,32.8,29.98,NE,45,1.0,2.0,40,0.00,,SKC,0.00,VWS V14.01,2013-02-12 19:00:00,
2013-02-12 17:09:00,56.7,29.0,29.98,ENE,76,1.0,2.0,35,0.00,,,0.00,weatherlink.com 1.10,2013-02-12 19:09:00,
2013-02-12 17:15:00,57.0,31.4,29.98,ENE,68,1.0,2.0,38,0.00,,SKC,0.00,VWS V14.01,2013-02-12 19:15:00,
2013-02-12 17:24:00,56.2,34.0,29.97,ENE,76,0.0,3.0,44,0.00,,,0.00,weatherlink.com 1.10,2013-02-12 19:24:00,
2013-02-12 17:30:00,56.0,35.7,29.97,ENE,68,0.0,3.0,46,0.00,,SKC,0.00,VWS V14.01,2013-02-12 19:30:00,
2013-02-12 17:39:00,55.8,35.0,29.97,ENE,76,0.0,1.0,46,0.00,,,0.00,weatherlink.com 1.10,2013-02-12 19:39:00,
2013-02-12 17:45:00,56.0,37.5,29.98,ENE,68,0.0,1.0,50,0.00,,SKC,0.00,VWS V14.01,2013-02-12 19:45:00,
2013-02-12 17:54:00,55.4,38.0,29.98,ENE,76,0.0,2.0,53,0.00,,,0.00,weatherlink.com 1.10,2013-02-12 19:54:00,
2013-02-12 18:00:00,55.0,38.6,29.98,ENE,68,0.0,2.0,53,0.00,,SKC,0.00,VWS V14.01,2013-02-12 20:00:00,
2013-02-12 18:10:00,55.0,40.0,29.98,ENE,76,1.0,1.0,57,0.00,,,0.00,weatherlink.com 1.10,2013-02-12 20:10:00,
2013-02-12 18:15:00,55.0,39.6,29.99,ENE,68,0.0,1.0,56,0.00,,SKC,0.00,VWS V14.01,2013-02-12 20:15:00,
2013-02-12 18:24:00,54.7,39.0,29.99,ENE,76,0.0,1.0,56,0.00,,,0.00,weatherlink.com 1.10,2013-02-12 20:24:00,
2013-02-12 18:30:00,55.0,42.0,29.99,ENE,68,0.0,1.0,62,0.00,,SKC,0.00,VWS V14.01,2013-02-12 20:30:00,
2013-02-12 18:39:00,54.4,41.0,29.99,ENE,76,0.0,0.0,61,0.00,,,0.00,weatherlink.com 1.10,2013-02-12 20:39:00,
2013-02-12 18:45:00,54.0,41.6,29.98,ENE,68,0.0,1.0,62,0.00,,SKC,0.00,VWS V14.01,2013-02-12 20:45:00,
2013-02-12 18:55:00,53.6,42.0,29.98,ENE,76,0.0,1.0,64,0.00,,,0.00,weatherlink.com 1.10,2013-02-12 20:55:00,
2013-02-12 19:00:00,53.0,42.1,29.97,ENE,68,0.0,2.0,65,0.00,,SKC,0.00,VWS V14.01,2013-02-12 21:00:00,
2013-02-12 19:09:00,53.1,42.0,29.96,ENE,76,0.0,2.0,67,0.00,,,0.00,weatherlink.com 1.10,2013-02-12 21:09:00,
2013-02-12 19:15:00,53.0,42.5,29.96,ENE,68,0.0,2.0,67,0.00,,SKC,0.00,VWS V14.01,2013-02-12 21:15:00,
2013-02-12 19:25:00,52.1,43.0,29.96,ENE,76,0.0,2.0,72,0.00,,,0.00,weatherlink.com 1.10,2013-02-12 21:25:00,
2013-02-12 19:30:00,52.0,44.5,29.97,ENE,68,0.0,2.0,75,0.00,,SKC,0.00,VWS V14.01,2013-02-12 21:30:00,
2013-02-12 19:40:00,51.1,45.0,29.97,ENE,76,1.0,1.0,80,0.01,,,0.01,weatherlink.com 1.10,2013-02-12 21:40:00,
2013-02-12 19:45:00,51.0,45.5,29.95,ENE,68,1.0,2.0,80,0.01,,SKC,0.01,VWS V14.01,2013-02-12 21:45:00,
2013-02-12 19:54:00,50.2,46.0,29.92,NNE,26,1.0,3.0,84,0.01,,,0.01,weatherlink.com 1.10,2013-02-12 21:54:00,
2013-02-12 20:00:00,50.0,45.0,29.91,ENE,68,2.0,4.0,82,0.01,,SKC,0.01,VWS V14.01,2013-02-12 22:00:00,
2013-02-12 20:09:00,50.1,44.0,29.91,North,5,1.0,4.0,80,0.01,,,0.01,weatherlink.com 1.10,2013-02-12 22:09:00,
2013-02-12 20:15:00,50.0,43.5,29.91,North,0,2.0,5.0,78,0.01,,SKC,0.01,VWS V14.01,2013-02-12 22:15:00,
2013-02-12 20:25:00,49.8,43.0,29.91,NNE,13,2.0,4.0,78,0.01,,,0.01,weatherlink.com 1.10,2013-02-12 22:25:00,
2013-02-12 20:30:00,50.0,43.6,29.91,North,0,2.0,4.0,79,0.01,,SKC,0.01,VWS V14.01,2013-02-12 22:30:00,
2013-02-12 20:40:00,49.2,43.0,29.87,North,360,3.0,5.0,80,0.00,,,0.01,weatherlink.com 1.10,2013-02-12 22:40:00,
2013-02-12 20:45:00,49.0,43.1,29.86,North,0,3.0,5.0,79,0.01,,SKC,0.01,VWS V14.01,2013-02-12 22:45:00,
2013-02-12 20:55:00,49.3,43.0,29.88,NE,55,1.0,5.0,78,0.00,,,0.01,weatherlink.com 1.10,2013-02-12 22:55:00,
2013-02-12 21:00:00,49.0,43.4,29.94,NNE,22,2.0,5.0,80,0.00,,SKC,0.01,VWS V14.01,2013-02-12 23:00:00,
2013-02-12 21:10:00,48.7,44.0,29.96,SSW,204,0.0,5.0,83,0.00,,,0.01,weatherlink.com 1.10,2013-02-12 23:10:00,
2013-02-12 21:15:00,49.0,43.3,29.95,SSW,202,1.0,4.0,81,0.01,,SKC,0.02,VWS V14.01,2013-02-12 23:15:00,
2013-02-12 21:25:00,48.2,44.0,29.94,SSW,204,0.0,2.0,85,0.01,,,0.02,weatherlink.com 1.10,2013-02-12 23:25:00,
2013-02-12 21:30:00,48.0,44.9,29.95,SSW,202,0.0,2.0,88,0.01,,SKC,0.02,VWS V14.01,2013-02-12 23:30:00,
2013-02-12 21:40:00,47.2,45.0,29.94,SSW,204,0.0,1.0,90,0.01,,,0.02,weatherlink.com 1.10,2013-02-12 23:40:00,
2013-02-12 21:45:00,47.0,44.5,29.93,SSW,202,1.0,3.0,90,0.01,,SKC,0.02,VWS V14.01,2013-02-12 23:45:00,
2013-02-12 21:55:00,46.7,45.0,29.92,SSW,210,0.0,2.0,93,0.02,,,0.03,weatherlink.com 1.10,2013-02-12 23:55:00,
2013-02-12 22:00:00,46.0,44.8,29.92,SSW,202,1.0,2.0,93,0.03,,SKC,0.04,VWS V14.01,2013-02-13 00:00:00,
2013-02-12 22:10:00,46.3,44.0,29.93,NNW,348,0.0,3.0,93,0.04,,,0.05,weatherlink.com 1.10,2013-02-13 00:10:00,
2013-02-12 22:15:00,46.0,44.7,29.93,NNW,338,1.0,3.0,94,0.04,,SKC,0.05,VWS V14.01,2013-02-13 00:15:00,
2013-02-12 22:25:00,46.1,45.0,29.91,NE,51,1.0,4.0,94,0.05,,,0.07,weatherlink.com 1.10,2013-02-13 00:25:00,
2013-02-12 22:30:00,46.0,44.6,29.93,NE,45,1.0,4.0,94,0.05,,SKC,0.07,VWS V14.01,2013-02-13 00:30:00,
2013-02-12 22:40:00,46.1,45.0,29.95,NE,52,0.0,1.0,94,0.05,,,0.07,weatherlink.com 1.10,2013-02-13 00:40:00,
2013-02-12 22:45:00,46.0,44.5,29.94,NE,45,0.0,1.0,94,0.05,,SKC,0.07,VWS V14.01,2013-02-13 00:45:00,
2013-02-12 22:55:00,46.0,44.0,29.92,NE,51,2.0,2.0,94,0.04,,,0.07,weatherlink.com 1.10,2013-02-13 00:55:00,
2013-02-12 23:00:00,46.0,44.4,29.92,NE,45,2.0,4.0,94,0.06,,SKC,0.08,VWS V14.01,2013-02-13 01:00:00,
2013-02-12 23:10:00,46.0,45.0,29.91,North,355,1.0,3.0,95,0.03,,,0.08,weatherlink.com 1.10,2013-02-13 01:10:00,
2013-02-12 23:15:00,46.0,44.7,29.91,North,0,2.0,4.0,95,0.04,,SKC,0.08,VWS V14.01,2013-02-13 01:15:00,
2013-02-12 23:25:00,45.9,45.0,29.91,NNE,17,1.0,3.0,95,0.01,,,0.08,weatherlink.com 1.10,2013-02-13 01:25:00,
2013-02-12 23:30:00,46.0,44.5,29.94,NNE,22,1.0,3.0,95,0.03,,SKC,0.08,VWS V14.01,2013-02-13 01:30:00,
2013-02-12 23:40:00,46.0,45.0,29.96,SW,216,2.0,2.0,95,0.01,,,0.08,weatherlink.com 1.10,2013-02-13 01:40:00,
2013-02-12 23:45:00,46.0,44.5,29.96,SW,225,1.0,3.0,95,0.01,,SKC,0.08,VWS V14.01,2013-02-13 01:45:00,
2013-02-12 23:55:00,45.8,45.0,29.92,SW,216,1.0,2.0,95,0.02,,,0.09,weatherlink.com 1.10,2013-02-13 01:55:00,